Bartosz Buksa

Recruteur - Jagiellonia
20 Nov 2027
Samedi
Processus

Personnalité

Adaptabilité (2) Ambition (11) Controverse (9) Loyauté (3) Pression (18) Professionnalisme (8) Sportivité (13) Tempérament (3)

Profil

Style d'entraînement Démocratique
Diplôme National B
Détermination 8
Gestion des joueurs 7
Motivation 6
Discipline 8
Satisfaction professionnelle
100%
Fatigue
0%
Rôle Recruteur
Salaire 18.5K p/s
Contrat 14.03.2030

Performance

Comportement Bon
Efficacité de l'entraînement
40%
Développement des joueurs
40%
Prévention des blessures
45%
Mise en place tactique
25%

Événements récents

A participé à une réunion de recrutement 14j
A participé à une réunion de recrutement 21j
A participé à une réunion de recrutement 28j
Anniversaire 35j
A participé à une réunion de recrutement 35j
A participé à une réunion de recrutement 42j
A participé à une réunion de recrutement 49j
A participé à une réunion de recrutement 56j

Suivi en cours

120
Joueur Club Statut Capacité Confiance Observé Dernière observation Dernier vote
Gonçalo Oliveira Benfica Actif 106 / 126 40% 6 31.05.2027 -
Leonardo Mendicino Bari Actif 112 / 117 40% 2 31.05.2027 -
Matteo Zazza Altamura Actif 98 / 100 40% 1 31.05.2027 -
Tiago Freitas Benfica Actif 115 / 121 40% 3 27.05.2027 -
Leandro Martins Benfica Actif 89 / 103 40% 4 26.05.2027 -
Tommaso Cecotti Carpi Actif 89 / 95 40% 3 26.05.2027 -
Joe Gelhardt Hull City Actif 131 / 124 40% 2 24.05.2027 -
Harvey Blair Portsmouth Actif 117 / 118 40% 1 24.05.2027 -
Tommy Conway Middlesbrough Actif 125 / 136 40% 3 23.05.2027 -
Jay Stansfield Birmingham Actif 129 / 137 40% 2 23.05.2027 -
Amin Sarr Hellas Verona Actif 125 / 132 40% 1 23.05.2027 -
Taras Mykhavko Dynamo Kyiv Actif 127 / 131 40% 4 22.05.2027 -
Juan David Arizala Udinese Actif 128 / 122 40% 3 22.05.2027 -
Sam Curtis Swindon Town Actif 101 / 116 40% 6 21.05.2027 -
Dale Taylor Blackpool Actif 114 / 114 40% 3 20.05.2027 -
Jakub Jakimiuk Angusht Actif 74 / 71 40% 1 20.05.2027 -
Kelly Saravanan Salford City Actif 111 / 103 40% 2 18.05.2027 -
Giuseppe Di Serio Spezia Actif 117 / 120 40% 1 18.05.2027 -
Enzo Cardozo Virtus Entella Actif 112 / 109 40% 3 17.05.2027 -
Etiosa Ighodaro Kaizer Chiefs Actif 108 / 106 40% 1 17.05.2027 -
Joel McGregor Swindon Town Actif 89 / 88 40% 1 13.05.2027 -
Riyad Idrissi Torino Actif 125 / 124 40% 1 13.05.2027 -
Pablo Rodríguez Lech Perdu 131 / 128 40% 3 12.05.2027 -
Jeffrey Adjei Wa All Stars Actif 81 / 82 40% 1 12.05.2027 -
Tyreece Campbell Charlton Athletic Actif 115 / 127 40% 2 10.05.2027 -
Jovon Makama Norwich City Actif 124 / 132 40% 1 10.05.2027 -
Mohamed-Ali Cho Hull City Actif 139 / 143 40% 1 10.05.2027 -
Konan N'Dri Lecce Actif 126 / 133 40% 2 08.05.2027 -
Josh Coburn Millwall Actif 113 / 121 40% 1 08.05.2027 -
Yousef Salech Cardiff City Actif 125 / 131 40% 1 08.05.2027 -
Norbert Barczak Korona Actif 82 / 85 40% 6 06.05.2027 -
Riley Owen Wycombe Wanderers Actif 99 / 112 40% 3 05.05.2027 -
Christos Mouzakitis Hull City Actif 134 / 137 40% 11 04.05.2027 -
Simone Kosijer Triestina Actif 100 / 95 40% 1 04.05.2027 -
Ronan Kpakio Brentford Actif 114 / 125 40% 3 30.04.2027 -
Davide Bartesaghi AC Milan Actif 127 / 141 40% 1 28.04.2027 -
Lucas Jetten Cambuur Actif 113 / 123 40% 5 22.04.2027 -
Bakary Haïdara Hearts of Oak Actif 114 / 117 40% 4 21.04.2027 -
Victor Ehibe Gazelle Garoua Actif 98 / 108 40% 2 21.04.2027 -
Daniel Vernattus Metalist Actif 92 / 98 40% 3 19.04.2027 -
Maeson King Blackpool Actif 109 / 116 40% 2 09.04.2027 -
Mohammed Wakaso Hasaacas Actif 96 / 92 40% 2 09.04.2027 -
Jofre Torrents Ajax Actif 121 / 136 40% 4 08.04.2027 -
Caleb Yirenkyi Coventry City Actif 132 / 147 40% 3 08.04.2027 -
Lucas Mbamba Westerlo Actif 84 / 86 40% 1 08.04.2027 -
Jonathan De Irastorza Levante Actif 123 / 129 40% 2 06.04.2027 -
Sascha Britschgi Catanzaro Actif 114 / 127 40% 1 03.04.2027 -
Riquelme Thompson-Jones Shrewsbury Town Actif 100 / 121 40% 6 29.03.2027 -
T-Jay Parfitt Cardiff City Actif 84 / 92 40% 2 27.03.2027 -
Abraham Paintsil Hasaacas Actif 97 / 99 40% 3 26.03.2027 -
Edwin Asamoah Berekum Chelsea Actif 87 / 104 40% 1 26.03.2027 -
Martim Cunha Porto Actif 97 / 114 40% 5 24.03.2027 -
Edmund Inusah WAFA Actif 76 / 84 40% 1 21.03.2027 -
Dylan Lawlor Cardiff City Actif 115 / 125 40% 2 18.03.2027 -
Edmund Nuhu BA All Stars Actif 86 / 101 40% 3 17.03.2027 -
Matvey Kislyak Lokomotiv Moscow Actif 137 / 130 40% 2 12.03.2027 -
Thiago Silvero Sevilla Actif 129 / 121 40% 2 10.03.2027 -
Eivind Helland Bologna Actif 131 / 132 40% 2 05.03.2027 -
James Dornelly Peterborough United Actif 99 / 99 40% 2 20.02.2027 -
Zoltan Bese Haladas Actif 106 / 123 40% 2 08.02.2027 -
Gladson Sulemana Liberty Professionals Actif 82 / 111 40% 2 08.02.2027 -
Matteo Pérez Vinlöf Dinamo Zagreb Actif 125 / 119 40% 2 05.02.2027 -
Aaron Connolly Ruch Actif 117 / 130 40% 4 24.01.2027 -
Pablo Solari Spartak Moscow Actif 134 / 127 40% 5 24.01.2027 -
Allahyar Sayyadmanesh Lech Actif 130 / 137 40% 1 24.01.2027 -
Luther Ngcobo Ajax Cape Town Actif 111 / 114 40% 1 18.01.2027 -
Rumarn Burrell Queens Park Rangers Actif 124 / 122 40% 1 31.12.2026 -
Roberto Massimo Legia Actif 113 / 126 40% 4 30.12.2026 -
Fraser Murray Wigan Athletic Actif 118 / 110 40% 2 30.12.2026 -
Ethan Galbraith Swansea City Actif 130 / 128 40% 2 28.12.2026 -
Cian Ashford Cardiff City Actif 120 / 130 40% 1 28.12.2026 -
Mihael Mlinarić Zaglebie Actif 122 / 105 40% 1 28.12.2026 -
Tom Fellows Southampton Actif 128 / 129 40% 2 26.12.2026 -
Relebohile Mofokeng Orlando Pirates Actif 121 / 134 40% 2 25.12.2026 -
Tshepang Moremi Orlando Pirates Actif 112 / 120 40% 1 24.12.2026 -
Mateusz Bogusz Houston Dynamo Actif 136 / 122 40% 7 19.12.2026 -
Peter Federico Gornik Zabrze Actif 118 / 133 40% 5 19.12.2026 -
Jeon Jin-Woo Sheffield Wednesday Actif 125 / 127 40% 2 17.12.2026 -
Reda Khadra Qarabag Actif 128 / 141 40% 1 17.12.2026 -
Ali Ahmed Norwich City Actif 121 / 119 40% 1 15.12.2026 -
Florentino Luís Ipswich Town Actif 134 / 149 40% 1 14.12.2026 -
Aljoša Matko Ujpest Actif 114 / 116 40% 1 14.12.2026 -
Andre Brooks Sheffield United Actif 133 / 132 40% 1 12.12.2026 -
Jack McGlynn Stoke City Actif 125 / 141 40% 1 12.12.2026 -
Marquinhos Spartak Moscow Actif 137 / 136 40% 4 11.12.2026 -
Louie Barry Sheffield Wednesday Actif 123 / 129 40% 1 11.12.2026 -
Nicola Zalewski Atalanta Actif 142 / 134 40% 1 10.12.2026 -
Petar Stanić Ludogorets Actif 135 / 135 40% 4 08.12.2026 -
Ammar Ramadan DAC Dunajska Streda Actif 122 / 127 40% 3 08.12.2026 -
Patrik Hellebrand Korona Actif 111 / 120 40% 2 07.12.2026 -
Brooke Norton-Cuffy Hull City Actif 130 / 128 40% 1 07.12.2026 -
Tyler Goodrham Oxford United Actif 120 / 123 40% 1 06.12.2026 -
Ajdin Hasić Cracovia Actif 120 / 117 40% 1 05.12.2026 -
Tobías Andrada Betis Actif 111 / 129 40% 1 04.12.2026 -
Luis Palma Lech Actif 124 / 125 40% 3 02.12.2026 -
Reuell Walters Luton Town Actif 108 / 115 40% 1 30.11.2026 -
Romano Schmid Frosinone Actif 139 / 145 40% 1 28.11.2026 -
Patrik Wålemark Lech Actif 132 / 134 40% 4 22.11.2026 -
Christian Krasnodar Actif 133 / 133 40% 2 22.11.2026 -
Iván Angulo Orlando City Actif 125 / 135 40% 3 21.11.2026 -
Daniel Kyerewaa Reading Actif 112 / 104 40% 1 21.11.2026 -
David Da Costa Portland Timbers Actif 129 / 136 40% 1 07.11.2026 -
Mayckel Lahdo Malmo FF Actif 121 / 112 40% 1 06.11.2026 -
Rúben Vinagre Legia Actif 115 / 118 40% 1 06.11.2026 -
Samuele Vignato HNK Rijeka Actif 123 / 124 40% 1 05.11.2026 -
João Simões Sporting CP Actif 133 / 143 40% 2 03.11.2026 -
Mbekezeli Mbokazi Chicago Fire Actif 133 / 128 40% 1 03.11.2026 -
Emil Ceïde Rosenborg Actif 123 / 122 40% 1 30.10.2026 -
Elias Achouri San Diego Football Club Actif 124 / 139 40% 2 27.10.2026 -
Kelvin Yeboah Minnesota United FC Actif 121 / 109 40% 1 27.10.2026 -
Martín Ojeda Orlando City Actif 137 / 143 40% 2 25.10.2026 -
Wiktor Długosz Korona Actif 107 / 107 40% 1 21.10.2026 -
Bryan Ramírez FC Cincinnati Actif 118 / 136 40% 1 15.10.2026 -
Jesus Ferreira Seattle Sounders Actif 140 / 120 40% 1 15.10.2026 -
Luca Langoni New England Revolution Actif 123 / 136 40% 1 13.10.2026 -
Djordje Mihailović Toronto FC Actif 144 / 118 40% 1 11.10.2026 -
Marco Pašalić Orlando City Actif 116 / 113 40% 1 08.10.2026 -
Riqui Puig LA Galaxy Actif 133 / 125 40% 1 08.10.2026 -
Tadeo Allende Inter Miami CF Actif 111 / 122 40% 1 05.10.2026 -
Talles Magno New York City Actif 127 / 128 40% 1 05.10.2026 -